EZY25KV EGHQ-EGKK
Flight info
| Callsign | EZY25KV |
|---|---|
| Flight time | 0h 43m |
| Altitude | 27000 |
| Route | DAWLY DCT ELRIP DCT OTMET |
| Aircraft | A320/M-SDE3FGHIRWY/LB1 |
Departure
| Time | 2026-05-09 13:37 |
|---|---|
| Airport | Cornwall Airport Newquay (EGHQ) |
Arrival
| Time | 2026-05-09 14:20 |
|---|---|
| Airport | London Gatwick Airport (EGKK) |
| Time | Latitude | Longitude | Altitude | Speed | Heading |
|---|---|---|---|---|---|
| 2026-05-09 13:12 | 50.44624 | -5.00299 | 336 ft | 0 kts | 77° |
| 2026-05-09 13:30 | 50.44623 | -5.00307 | 336 ft | 4 kts | 75° |
| 2026-05-09 13:31 | 50.44613 | -5.00345 | 348 ft | 4 kts | 50° |
| 2026-05-09 13:31 | 50.44593 | -5.00369 | 331 ft | 3 kts | 18° |
| 2026-05-09 13:31 | 50.44590 | -5.00371 | 331 ft | 0 kts | 17° |
| 2026-05-09 13:33 | 50.44592 | -5.00373 | 331 ft | 0 kts | 358° |
| 2026-05-09 13:33 | 50.44603 | -5.00387 | 332 ft | 5 kts | 322° |
| 2026-05-09 13:34 | 50.44638 | -5.00470 | 327 ft | 14 kts | 299° |
| 2026-05-09 13:34 | 50.44700 | -5.00648 | 322 ft | 22 kts | 301° |
| 2026-05-09 13:34 | 50.44779 | -5.00857 | 319 ft | 22 kts | 300° |
| 2026-05-09 13:34 | 50.44806 | -5.01046 | 316 ft | 16 kts | 253° |
| 2026-05-09 13:35 | 50.44735 | -5.01150 | 313 ft | 13 kts | 201° |
| 2026-05-09 13:35 | 50.44672 | -5.01115 | 315 ft | 5 kts | 118° |
| 2026-05-09 13:35 | 50.44672 | -5.01113 | 315 ft | 0 kts | 118° |
| 2026-05-09 13:36 | 50.44619 | -5.00969 | 319 ft | 48 kts | 120° |
| 2026-05-09 13:36 | 50.44323 | -5.00187 | 336 ft | 115 kts | 120° |
| 2026-05-09 13:36 | 50.43830 | -4.98865 | 449 ft | 156 kts | 120° |
| 2026-05-09 13:37 | 50.43277 | -4.97421 | 1165 ft | 155 kts | 116° |
| 2026-05-09 13:37 | 50.42711 | -4.95916 | 1789 ft | 169 kts | 116° |
| 2026-05-09 13:37 | 50.42197 | -4.94151 | 2148 ft | 189 kts | 94° |
| 2026-05-09 13:37 | 50.42321 | -4.92002 | 2531 ft | 213 kts | 80° |
| 2026-05-09 13:38 | 50.42615 | -4.89586 | 3035 ft | 238 kts | 79° |
| 2026-05-09 13:38 | 50.42946 | -4.86975 | 3864 ft | 248 kts | 79° |
| 2026-05-09 13:38 | 50.43276 | -4.84297 | 4914 ft | 251 kts | 79° |
| 2026-05-09 13:38 | 50.43596 | -4.81589 | 5919 ft | 255 kts | 79° |
| 2026-05-09 13:39 | 50.43913 | -4.78830 | 6867 ft | 259 kts | 79° |
| 2026-05-09 13:39 | 50.44227 | -4.76023 | 7794 ft | 263 kts | 80° |
| 2026-05-09 13:39 | 50.44540 | -4.73168 | 8750 ft | 267 kts | 81° |
| 2026-05-09 13:39 | 50.44853 | -4.70276 | 9720 ft | 271 kts | 81° |
| 2026-05-09 13:40 | 50.45169 | -4.67313 | 10542 ft | 285 kts | 81° |
| 2026-05-09 13:40 | 50.45502 | -4.64163 | 10994 ft | 309 kts | 82° |
| 2026-05-09 13:40 | 50.45864 | -4.60738 | 11465 ft | 324 kts | 82° |
| 2026-05-09 13:40 | 50.46239 | -4.57204 | 12168 ft | 332 kts | 82° |
| 2026-05-09 13:41 | 50.46623 | -4.53601 | 12952 ft | 337 kts | 82° |
| 2026-05-09 13:41 | 50.47011 | -4.49952 | 13734 ft | 341 kts | 83° |
| 2026-05-09 13:41 | 50.47400 | -4.46264 | 14389 ft | 347 kts | 83° |
| 2026-05-09 13:41 | 50.47793 | -4.42507 | 15048 ft | 351 kts | 83° |
| 2026-05-09 13:42 | 50.48189 | -4.38705 | 15741 ft | 355 kts | 83° |
| 2026-05-09 13:42 | 50.48590 | -4.34847 | 16381 ft | 361 kts | 83° |
| 2026-05-09 13:42 | 50.48997 | -4.30934 | 17053 ft | 365 kts | 83° |
| 2026-05-09 13:42 | 50.49409 | -4.26974 | 17691 ft | 370 kts | 82° |
| 2026-05-09 13:43 | 50.49824 | -4.22952 | 18309 ft | 375 kts | 83° |
| 2026-05-09 13:43 | 50.50242 | -4.18881 | 18881 ft | 380 kts | 83° |
| 2026-05-09 13:43 | 50.50663 | -4.14768 | 19448 ft | 383 kts | 83° |
| 2026-05-09 13:43 | 50.51085 | -4.10622 | 20030 ft | 385 kts | 83° |
| 2026-05-09 13:44 | 50.51506 | -4.06447 | 20601 ft | 388 kts | 83° |
| 2026-05-09 13:44 | 50.51929 | -4.02246 | 21166 ft | 391 kts | 83° |
| 2026-05-09 13:44 | 50.52355 | -3.98008 | 21744 ft | 394 kts | 83° |
| 2026-05-09 13:44 | 50.52780 | -3.93743 | 22289 ft | 397 kts | 83° |
| 2026-05-09 13:45 | 50.53205 | -3.89440 | 22845 ft | 399 kts | 84° |
| 2026-05-09 13:45 | 50.53635 | -3.85111 | 23369 ft | 403 kts | 83° |
| 2026-05-09 13:45 | 50.54069 | -3.80747 | 23853 ft | 406 kts | 83° |
| 2026-05-09 13:45 | 50.54504 | -3.76353 | 24294 ft | 408 kts | 83° |
| 2026-05-09 13:46 | 50.54942 | -3.71917 | 24707 ft | 412 kts | 83° |
| 2026-05-09 13:46 | 50.55379 | -3.67451 | 25063 ft | 416 kts | 83° |
| 2026-05-09 13:46 | 50.55818 | -3.62931 | 25429 ft | 420 kts | 83° |
| 2026-05-09 13:46 | 50.56262 | -3.58376 | 25818 ft | 423 kts | 83° |
| 2026-05-09 13:47 | 50.56709 | -3.53792 | 26212 ft | 426 kts | 83° |
| 2026-05-09 13:47 | 50.57148 | -3.49237 | 26598 ft | 428 kts | 83° |
| 2026-05-09 13:47 | 50.57601 | -3.44589 | 26969 ft | 431 kts | 83° |
| 2026-05-09 13:47 | 50.58101 | -3.39939 | 27071 ft | 429 kts | 82° |
| 2026-05-09 13:48 | 50.58642 | -3.35363 | 27089 ft | 423 kts | 81° |
| 2026-05-09 13:48 | 50.59202 | -3.30821 | 27087 ft | 422 kts | 81° |
| 2026-05-09 13:48 | 50.59761 | -3.26299 | 27078 ft | 421 kts | 81° |
| 2026-05-09 13:48 | 50.60307 | -3.21765 | 27077 ft | 423 kts | 82° |
| 2026-05-09 13:49 | 50.60841 | -3.17209 | 27084 ft | 423 kts | 82° |
| 2026-05-09 13:49 | 50.61364 | -3.12648 | 27090 ft | 423 kts | 82° |
| 2026-05-09 13:49 | 50.61883 | -3.08083 | 27090 ft | 423 kts | 82° |
| 2026-05-09 13:49 | 50.62398 | -3.03522 | 27083 ft | 423 kts | 82° |
| 2026-05-09 13:50 | 50.62911 | -2.98960 | 27086 ft | 423 kts | 82° |
| 2026-05-09 13:50 | 50.63426 | -2.94395 | 27091 ft | 423 kts | 82° |
| 2026-05-09 13:50 | 50.63943 | -2.89828 | 27095 ft | 423 kts | 82° |
| 2026-05-09 13:50 | 50.64455 | -2.85262 | 27092 ft | 423 kts | 82° |
| 2026-05-09 13:51 | 50.64966 | -2.80711 | 27092 ft | 423 kts | 82° |
| 2026-05-09 13:51 | 50.65475 | -2.76146 | 27079 ft | 424 kts | 82° |
| 2026-05-09 13:51 | 50.65983 | -2.71582 | 27076 ft | 424 kts | 82° |
| 2026-05-09 13:51 | 50.66494 | -2.67001 | 27069 ft | 425 kts | 82° |
| 2026-05-09 13:52 | 50.67001 | -2.62408 | 27065 ft | 426 kts | 82° |
| 2026-05-09 13:52 | 50.67505 | -2.57804 | 27066 ft | 426 kts | 83° |
| 2026-05-09 13:52 | 50.67976 | -2.53191 | 27076 ft | 425 kts | 86° |
| 2026-05-09 13:52 | 50.68077 | -2.48538 | 27082 ft | 427 kts | 96° |
| 2026-05-09 13:53 | 50.67881 | -2.43843 | 27096 ft | 432 kts | 96° |
| 2026-05-09 13:53 | 50.67679 | -2.39112 | 27087 ft | 433 kts | 96° |
| 2026-05-09 13:53 | 50.67475 | -2.34369 | 27095 ft | 433 kts | 96° |
| 2026-05-09 13:53 | 50.67270 | -2.29627 | 27092 ft | 435 kts | 97° |
| 2026-05-09 13:54 | 50.67066 | -2.24862 | 27090 ft | 436 kts | 96° |
| 2026-05-09 13:54 | 50.66863 | -2.20093 | 27086 ft | 437 kts | 97° |
| 2026-05-09 13:54 | 50.66658 | -2.15322 | 27086 ft | 437 kts | 97° |
| 2026-05-09 13:54 | 50.66448 | -2.10552 | 26631 ft | 437 kts | 97° |
| 2026-05-09 13:55 | 50.66229 | -2.05750 | 25717 ft | 440 kts | 96° |
| 2026-05-09 13:55 | 50.66102 | -2.00939 | 25007 ft | 439 kts | 91° |
| 2026-05-09 13:55 | 50.66161 | -1.96200 | 24366 ft | 435 kts | 91° |
| 2026-05-09 13:55 | 50.66221 | -1.91401 | 23741 ft | 431 kts | 90° |
| 2026-05-09 13:56 | 50.66279 | -1.86764 | 23050 ft | 427 kts | 90° |
| 2026-05-09 13:56 | 50.66316 | -1.83633 | 22767 ft | 420 kts | 91° |
| 2026-05-09 13:56 | 50.66386 | -1.77666 | 22465 ft | 404 kts | 91° |
| 2026-05-09 13:56 | 50.66437 | -1.73268 | 22194 ft | 400 kts | 91° |
| 2026-05-09 13:57 | 50.66486 | -1.68905 | 21926 ft | 397 kts | 91° |
| 2026-05-09 13:57 | 50.66527 | -1.64563 | 21659 ft | 395 kts | 91° |
| 2026-05-09 13:57 | 50.66563 | -1.60240 | 21397 ft | 393 kts | 91° |
| 2026-05-09 13:57 | 50.66598 | -1.55938 | 21134 ft | 392 kts | 91° |
| 2026-05-09 13:58 | 50.66617 | -1.53043 | 20917 ft | 391 kts | 91° |
| 2026-05-09 13:58 | 50.66600 | -1.48773 | 20421 ft | 388 kts | 93° |
| 2026-05-09 13:58 | 50.66540 | -1.44543 | 19981 ft | 384 kts | 93° |
| 2026-05-09 13:58 | 50.66464 | -1.40351 | 19539 ft | 381 kts | 94° |
| 2026-05-09 13:59 | 50.66448 | -1.36182 | 19093 ft | 380 kts | 88° |
| 2026-05-09 13:59 | 50.66859 | -1.32078 | 18650 ft | 379 kts | 76° |
| 2026-05-09 13:59 | 50.67729 | -1.28219 | 18190 ft | 378 kts | 69° |
| 2026-05-09 13:59 | 50.68724 | -1.24395 | 17733 ft | 376 kts | 69° |
| 2026-05-09 14:00 | 50.69705 | -1.20594 | 17301 ft | 374 kts | 69° |
| 2026-05-09 14:00 | 50.70364 | -1.18028 | 17011 ft | 372 kts | 69° |
| 2026-05-09 14:00 | 50.71639 | -1.13042 | 16443 ft | 369 kts | 69° |
| 2026-05-09 14:00 | 50.72593 | -1.09293 | 16014 ft | 367 kts | 69° |
| 2026-05-09 14:01 | 50.73539 | -1.05572 | 15592 ft | 364 kts | 69° |
| 2026-05-09 14:01 | 50.74496 | -1.01878 | 15051 ft | 365 kts | 65° |
| 2026-05-09 14:01 | 50.75925 | -0.98579 | 14442 ft | 367 kts | 47° |
| 2026-05-09 14:01 | 50.77705 | -0.95677 | 13838 ft | 368 kts | 45° |
| 2026-05-09 14:02 | 50.79508 | -0.92802 | 13180 ft | 369 kts | 45° |
| 2026-05-09 14:02 | 50.81314 | -0.89931 | 12524 ft | 368 kts | 45° |
| 2026-05-09 14:02 | 50.83123 | -0.87069 | 11877 ft | 367 kts | 45° |
| 2026-05-09 14:02 | 50.84930 | -0.84220 | 11254 ft | 365 kts | 45° |
| 2026-05-09 14:03 | 50.86728 | -0.81403 | 10623 ft | 363 kts | 45° |
| 2026-05-09 14:03 | 50.88517 | -0.78608 | 10016 ft | 360 kts | 45° |
| 2026-05-09 14:03 | 50.90298 | -0.75850 | 9350 ft | 356 kts | 45° |
| 2026-05-09 14:03 | 50.92063 | -0.73123 | 8690 ft | 352 kts | 45° |
| 2026-05-09 14:04 | 50.93809 | -0.70432 | 8051 ft | 348 kts | 45° |
| 2026-05-09 14:04 | 50.95538 | -0.67772 | 7415 ft | 344 kts | 45° |
| 2026-05-09 14:04 | 50.97247 | -0.65140 | 6784 ft | 341 kts | 45° |
| 2026-05-09 14:04 | 50.98944 | -0.62546 | 6157 ft | 337 kts | 45° |
| 2026-05-09 14:05 | 51.00623 | -0.59982 | 5521 ft | 333 kts | 45° |
| 2026-05-09 14:05 | 51.02284 | -0.57462 | 4890 ft | 328 kts | 45° |
| 2026-05-09 14:05 | 51.03926 | -0.54971 | 4256 ft | 325 kts | 45° |
| 2026-05-09 14:05 | 51.05548 | -0.52515 | 3615 ft | 321 kts | 45° |
| 2026-05-09 14:06 | 51.07153 | -0.50099 | 3145 ft | 310 kts | 45° |
| 2026-05-09 14:06 | 51.08626 | -0.47873 | 3002 ft | 281 kts | 45° |
| 2026-05-09 14:06 | 51.09974 | -0.45851 | 3007 ft | 254 kts | 45° |
| 2026-05-09 14:06 | 51.11180 | -0.44022 | 3006 ft | 225 kts | 50° |
| 2026-05-09 14:07 | 51.11808 | -0.41954 | 2856 ft | 203 kts | 84° |
| 2026-05-09 14:07 | 51.11930 | -0.39821 | 2631 ft | 182 kts | 80° |
| 2026-05-09 14:07 | 51.11968 | -0.39500 | 2591 ft | 178 kts | 79° |
| 2026-05-09 14:07 | 51.12074 | -0.38704 | 2507 ft | 167 kts | 78° |
| 2026-05-09 14:08 | 51.12277 | -0.37259 | 2333 ft | 149 kts | 77° |
| 2026-05-09 14:08 | 51.12494 | -0.35715 | 2118 ft | 133 kts | 77° |
| 2026-05-09 14:08 | 51.12692 | -0.34302 | 1947 ft | 134 kts | 78° |
| 2026-05-09 14:08 | 51.12894 | -0.32854 | 1765 ft | 132 kts | 77° |
| 2026-05-09 14:09 | 51.13089 | -0.31455 | 1588 ft | 128 kts | 77° |
| 2026-05-09 14:09 | 51.13281 | -0.30077 | 1417 ft | 128 kts | 77° |
| 2026-05-09 14:09 | 51.13473 | -0.28699 | 1249 ft | 126 kts | 77° |
| 2026-05-09 14:09 | 51.13660 | -0.27358 | 1078 ft | 123 kts | 78° |
| 2026-05-09 14:10 | 51.14026 | -0.24720 | 747 ft | 124 kts | 76° |
| 2026-05-09 14:10 | 51.14213 | -0.23372 | 584 ft | 126 kts | 75° |
| 2026-05-09 14:10 | 51.14407 | -0.21964 | 640 ft | 139 kts | 76° |
| 2026-05-09 14:11 | 51.14623 | -0.20389 | 1355 ft | 152 kts | 77° |
| 2026-05-09 14:11 | 51.14856 | -0.18684 | 1783 ft | 164 kts | 85° |
| 2026-05-09 14:11 | 51.14651 | -0.16855 | 2160 ft | 178 kts | 115° |
| 2026-05-09 14:11 | 51.13787 | -0.15379 | 2589 ft | 191 kts | 146° |
| 2026-05-09 14:12 | 51.12519 | -0.14820 | 2884 ft | 210 kts | 179° |
| 2026-05-09 14:12 | 51.11101 | -0.15552 | 2983 ft | 222 kts | 214° |
| 2026-05-09 14:12 | 51.10102 | -0.17424 | 3010 ft | 226 kts | 239° |
| 2026-05-09 14:12 | 51.09371 | -0.19638 | 3009 ft | 229 kts | 243° |
| 2026-05-09 14:13 | 51.08675 | -0.21902 | 3009 ft | 230 kts | 243° |
| 2026-05-09 14:14 | 51.05680 | -0.38585 | 3005 ft | 227 kts | 277° |
| 2026-05-09 14:15 | 51.06098 | -0.40976 | 3008 ft | 224 kts | 297° |
| 2026-05-09 14:15 | 51.07100 | -0.42801 | 3010 ft | 220 kts | 334° |
| 2026-05-09 14:15 | 51.08506 | -0.43532 | 2978 ft | 213 kts | 359° |
| 2026-05-09 14:15 | 51.09939 | -0.43220 | 2942 ft | 207 kts | 25° |
| 2026-05-09 14:16 | 51.11128 | -0.41991 | 2823 ft | 203 kts | 50° |
| 2026-05-09 14:16 | 51.11849 | -0.40157 | 2638 ft | 189 kts | 72° |
| 2026-05-09 14:16 | 51.12150 | -0.38176 | 2419 ft | 181 kts | 78° |
| 2026-05-09 14:16 | 51.12418 | -0.36252 | 2182 ft | 177 kts | 78° |
| 2026-05-09 14:17 | 51.12683 | -0.34355 | 1957 ft | 175 kts | 78° |
| 2026-05-09 14:17 | 51.12943 | -0.32494 | 1745 ft | 166 kts | 78° |
| 2026-05-09 14:17 | 51.13181 | -0.30792 | 1526 ft | 150 kts | 77° |
| 2026-05-09 14:17 | 51.13394 | -0.29262 | 1318 ft | 135 kts | 77° |
| 2026-05-09 14:18 | 51.13591 | -0.27864 | 1051 ft | 127 kts | 77° |
| 2026-05-09 14:18 | 51.13774 | -0.26514 | 887 ft | 122 kts | 74° |
| 2026-05-09 14:18 | 51.13957 | -0.25188 | 780 ft | 122 kts | 75° |
| 2026-05-09 14:18 | 51.14158 | -0.23855 | 673 ft | 125 kts | 80° |
| 2026-05-09 14:19 | 51.14342 | -0.22484 | 482 ft | 127 kts | 79° |
| 2026-05-09 14:19 | 51.14525 | -0.21111 | 302 ft | 126 kts | 77° |
| 2026-05-09 14:19 | 51.14706 | -0.19810 | 205 ft | 109 kts | 78° |
| 2026-05-09 14:19 | 51.14833 | -0.18892 | 207 ft | 64 kts | 77° |
| 2026-05-09 14:20 | 51.14930 | -0.18531 | 209 ft | 28 kts | 50° |
| 2026-05-09 14:20 | 51.15040 | -0.18315 | 216 ft | 17 kts | 52° |
| 2026-05-09 14:20 | 51.15095 | -0.18210 | 207 ft | 12 kts | 40° |
| 2026-05-09 14:21 | 51.15222 | -0.18217 | 204 ft | 14 kts | 346° |
| 2026-05-09 14:21 | 51.15330 | -0.18255 | 213 ft | 17 kts | 347° |
| 2026-05-09 14:21 | 51.15454 | -0.18298 | 215 ft | 19 kts | 347° |
| 2026-05-09 14:21 | 51.15591 | -0.18346 | 213 ft | 21 kts | 348° |
| 2026-05-09 14:22 | 51.15665 | -0.18199 | 214 ft | 20 kts | 77° |
| 2026-05-09 14:22 | 51.15693 | -0.18005 | 214 ft | 0 kts | 77° |
| 2026-05-09 14:22 | 51.15694 | -0.18001 | 213 ft | 2 kts | 77° |
| 2026-05-09 14:22 | 51.15701 | -0.17948 | 204 ft | 7 kts | 78° |
| 2026-05-09 14:23 | 51.15723 | -0.17868 | 212 ft | 8 kts | 25° |
| 2026-05-09 14:23 | 51.15772 | -0.17881 | 204 ft | 3 kts | 347° |
| 2026-05-09 14:23 | 51.15779 | -0.17883 | 204 ft | 0 kts | 347° |